SWA992 KBWI-KRDU
Flight info
| Callsign | SWA992 |
|---|---|
| Flight time | 1h 10m |
| Altitude | 22000 |
| Route | CONLE5 COLIN TAPPA HOUKY TAQLE3 |
| Aircraft | B738/M-SADE2E3GIJ4RWZ/LB1D1 |
Departure
| Time | 2026-05-07 00:30 |
|---|---|
| Airport | Baltimore/Washington International Thurgood Marshall Airport (KBWI) |
Arrival
| Time | 2026-05-07 01:40 |
|---|---|
| Airport | Raleigh-Durham International Airport (KRDU) |
| Time | Latitude | Longitude | Altitude | Speed | Heading |
|---|---|---|---|---|---|
| 2026-05-07 00:01 | 39.17642 | -76.66989 | 150 ft | 0 kts | 84° |
| 2026-05-07 00:21 | 39.17642 | -76.66995 | 150 ft | 2 kts | 84° |
| 2026-05-07 00:21 | 39.17640 | -76.67016 | 149 ft | 2 kts | 84° |
| 2026-05-07 00:22 | 39.17639 | -76.67037 | 149 ft | 2 kts | 87° |
| 2026-05-07 00:22 | 39.17640 | -76.67058 | 148 ft | 2 kts | 126° |
| 2026-05-07 00:22 | 39.17641 | -76.67061 | 148 ft | 0 kts | 141° |
| 2026-05-07 00:24 | 39.17637 | -76.67057 | 148 ft | 6 kts | 146° |
| 2026-05-07 00:24 | 39.17555 | -76.66967 | 149 ft | 21 kts | 118° |
| 2026-05-07 00:24 | 39.17523 | -76.66663 | 148 ft | 24 kts | 92° |
| 2026-05-07 00:24 | 39.17557 | -76.66451 | 145 ft | 26 kts | 116° |
| 2026-05-07 00:25 | 39.17492 | -76.66313 | 143 ft | 24 kts | 125° |
| 2026-05-07 00:25 | 39.17451 | -76.66111 | 144 ft | 25 kts | 94° |
| 2026-05-07 00:25 | 39.17436 | -76.65869 | 145 ft | 29 kts | 95° |
| 2026-05-07 00:25 | 39.17417 | -76.65605 | 151 ft | 23 kts | 95° |
| 2026-05-07 00:26 | 39.17379 | -76.65527 | 152 ft | 0 kts | 169° |
| 2026-05-07 00:28 | 39.17378 | -76.65527 | 152 ft | 1 kts | 169° |
| 2026-05-07 00:29 | 39.17333 | -76.65516 | 153 ft | 12 kts | 170° |
| 2026-05-07 00:29 | 39.17285 | -76.65620 | 149 ft | 22 kts | 272° |
| 2026-05-07 00:30 | 39.17477 | -76.68998 | 979 ft | 183 kts | 272° |
| 2026-05-07 00:30 | 39.17522 | -76.70642 | 2138 ft | 183 kts | 274° |
| 2026-05-07 00:30 | 39.17523 | -76.73783 | 4191 ft | 163 kts | 244° |
| 2026-05-07 00:31 | 39.16801 | -76.74864 | 4991 ft | 160 kts | 218° |
| 2026-05-07 00:31 | 39.15741 | -76.75344 | 5642 ft | 174 kts | 191° |
| 2026-05-07 00:31 | 39.14425 | -76.74939 | 5830 ft | 218 kts | 154° |
| 2026-05-07 00:31 | 39.13148 | -76.73800 | 6311 ft | 231 kts | 152° |
| 2026-05-07 00:32 | 39.11824 | -76.72605 | 6882 ft | 231 kts | 152° |
| 2026-05-07 00:32 | 39.10504 | -76.71407 | 6998 ft | 235 kts | 152° |
| 2026-05-07 00:32 | 39.09163 | -76.70189 | 7026 ft | 237 kts | 152° |
| 2026-05-07 00:32 | 39.07797 | -76.68948 | 7010 ft | 237 kts | 152° |
| 2026-05-07 00:33 | 39.06479 | -76.67749 | 7022 ft | 232 kts | 152° |
| 2026-05-07 00:33 | 39.05165 | -76.66555 | 7024 ft | 232 kts | 152° |
| 2026-05-07 00:33 | 39.03817 | -76.65292 | 7197 ft | 254 kts | 144° |
| 2026-05-07 00:33 | 39.02539 | -76.63567 | 7364 ft | 275 kts | 136° |
| 2026-05-07 00:34 | 39.01322 | -76.61665 | 7627 ft | 275 kts | 134° |
| 2026-05-07 00:34 | 39.00120 | -76.59765 | 7882 ft | 273 kts | 135° |
| 2026-05-07 00:34 | 38.98910 | -76.57884 | 8094 ft | 271 kts | 136° |
| 2026-05-07 00:34 | 38.97702 | -76.56041 | 8354 ft | 269 kts | 136° |
| 2026-05-07 00:35 | 38.96482 | -76.54205 | 8606 ft | 273 kts | 137° |
| 2026-05-07 00:35 | 38.95250 | -76.52361 | 8881 ft | 277 kts | 137° |
| 2026-05-07 00:35 | 38.93968 | -76.50495 | 9116 ft | 283 kts | 144° |
| 2026-05-07 00:35 | 38.92255 | -76.49241 | 9484 ft | 287 kts | 173° |
| 2026-05-07 00:36 | 38.90259 | -76.49138 | 9899 ft | 294 kts | 195° |
| 2026-05-07 00:36 | 38.88187 | -76.49710 | 10300 ft | 316 kts | 198° |
| 2026-05-07 00:36 | 38.85972 | -76.50372 | 10716 ft | 338 kts | 198° |
| 2026-05-07 00:36 | 38.83706 | -76.51110 | 11061 ft | 328 kts | 203° |
| 2026-05-07 00:37 | 38.81610 | -76.52089 | 11430 ft | 313 kts | 207° |
| 2026-05-07 00:37 | 38.79606 | -76.53131 | 11812 ft | 310 kts | 207° |
| 2026-05-07 00:37 | 38.77599 | -76.54182 | 12216 ft | 314 kts | 207° |
| 2026-05-07 00:37 | 38.75566 | -76.55221 | 12625 ft | 317 kts | 207° |
| 2026-05-07 00:38 | 38.73505 | -76.56250 | 13041 ft | 319 kts | 207° |
| 2026-05-07 00:38 | 38.71455 | -76.57260 | 13444 ft | 320 kts | 207° |
| 2026-05-07 00:38 | 38.69368 | -76.58284 | 13838 ft | 322 kts | 207° |
| 2026-05-07 00:38 | 38.67260 | -76.59289 | 14203 ft | 324 kts | 206° |
| 2026-05-07 00:39 | 38.65580 | -76.60067 | 14504 ft | 325 kts | 206° |
| 2026-05-07 00:39 | 38.63437 | -76.61051 | 14884 ft | 327 kts | 206° |
| 2026-05-07 00:39 | 38.61287 | -76.62039 | 15267 ft | 329 kts | 207° |
| 2026-05-07 00:40 | 38.59129 | -76.63032 | 15651 ft | 330 kts | 207° |
| 2026-05-07 00:40 | 38.56985 | -76.64019 | 16042 ft | 332 kts | 207° |
| 2026-05-07 00:40 | 38.54806 | -76.65024 | 16449 ft | 333 kts | 208° |
| 2026-05-07 00:40 | 38.52623 | -76.66030 | 16846 ft | 335 kts | 208° |
| 2026-05-07 00:41 | 38.50423 | -76.67045 | 17253 ft | 336 kts | 208° |
| 2026-05-07 00:41 | 38.48220 | -76.68060 | 17676 ft | 338 kts | 208° |
| 2026-05-07 00:41 | 38.46005 | -76.69080 | 18088 ft | 339 kts | 209° |
| 2026-05-07 00:41 | 38.43777 | -76.70105 | 18459 ft | 341 kts | 209° |
| 2026-05-07 00:42 | 38.41506 | -76.71045 | 18818 ft | 351 kts | 201° |
| 2026-05-07 00:42 | 38.38997 | -76.71203 | 19187 ft | 371 kts | 185° |
| 2026-05-07 00:42 | 38.36418 | -76.70834 | 19574 ft | 375 kts | 183° |
| 2026-05-07 00:42 | 38.33819 | -76.70377 | 19951 ft | 378 kts | 182° |
| 2026-05-07 00:43 | 38.31200 | -76.69904 | 20336 ft | 381 kts | 183° |
| 2026-05-07 00:43 | 38.28563 | -76.69441 | 20724 ft | 384 kts | 183° |
| 2026-05-07 00:43 | 38.25908 | -76.68992 | 21119 ft | 387 kts | 184° |
| 2026-05-07 00:43 | 38.23232 | -76.68551 | 21522 ft | 390 kts | 184° |
| 2026-05-07 00:44 | 38.20527 | -76.68114 | 21871 ft | 395 kts | 184° |
| 2026-05-07 00:44 | 38.17761 | -76.67673 | 21864 ft | 404 kts | 184° |
| 2026-05-07 00:44 | 38.14986 | -76.67221 | 21869 ft | 401 kts | 183° |
| 2026-05-07 00:44 | 38.12233 | -76.66772 | 21867 ft | 396 kts | 184° |
| 2026-05-07 00:45 | 38.09499 | -76.66333 | 21875 ft | 396 kts | 184° |
| 2026-05-07 00:45 | 38.06757 | -76.65903 | 21884 ft | 398 kts | 184° |
| 2026-05-07 00:45 | 38.04007 | -76.65478 | 21889 ft | 399 kts | 184° |
| 2026-05-07 00:45 | 38.01252 | -76.65184 | 21860 ft | 389 kts | 194° |
| 2026-05-07 00:46 | 37.98762 | -76.66023 | 21905 ft | 358 kts | 218° |
| 2026-05-07 00:46 | 37.96950 | -76.67992 | 21897 ft | 335 kts | 242° |
| 2026-05-07 00:46 | 37.96123 | -76.70651 | 21907 ft | 322 kts | 266° |
| 2026-05-07 00:46 | 37.96296 | -76.73467 | 21927 ft | 322 kts | 279° |
| 2026-05-07 00:47 | 37.96608 | -76.76281 | 21910 ft | 323 kts | 273° |
| 2026-05-07 00:47 | 37.96602 | -76.79133 | 21911 ft | 324 kts | 268° |
| 2026-05-07 00:47 | 37.96315 | -76.81969 | 21899 ft | 329 kts | 256° |
| 2026-05-07 00:47 | 37.95173 | -76.84516 | 21919 ft | 344 kts | 233° |
| 2026-05-07 00:48 | 37.93161 | -76.86295 | 21928 ft | 364 kts | 214° |
| 2026-05-07 00:48 | 37.90781 | -76.87507 | 21921 ft | 372 kts | 210° |
| 2026-05-07 00:48 | 37.88332 | -76.88609 | 21737 ft | 375 kts | 209° |
| 2026-05-07 00:48 | 37.85878 | -76.89672 | 21471 ft | 369 kts | 208° |
| 2026-05-07 00:49 | 37.83474 | -76.90708 | 21212 ft | 362 kts | 208° |
| 2026-05-07 00:49 | 37.81105 | -76.91743 | 20961 ft | 359 kts | 209° |
| 2026-05-07 00:49 | 37.78775 | -76.92780 | 20713 ft | 360 kts | 209° |
| 2026-05-07 00:49 | 37.76378 | -76.93856 | 20473 ft | 361 kts | 209° |
| 2026-05-07 00:50 | 37.74010 | -76.94924 | 20229 ft | 361 kts | 209° |
| 2026-05-07 00:50 | 37.71677 | -76.95978 | 20009 ft | 361 kts | 208° |
| 2026-05-07 00:50 | 37.69321 | -76.97040 | 19938 ft | 359 kts | 208° |
| 2026-05-07 00:50 | 37.66968 | -76.98102 | 19912 ft | 358 kts | 208° |
| 2026-05-07 00:51 | 37.64622 | -76.99160 | 19911 ft | 358 kts | 208° |
| 2026-05-07 00:51 | 37.62274 | -77.00221 | 19914 ft | 359 kts | 208° |
| 2026-05-07 00:51 | 37.59920 | -77.01282 | 19915 ft | 359 kts | 208° |
| 2026-05-07 00:51 | 37.57568 | -77.02342 | 19911 ft | 359 kts | 208° |
| 2026-05-07 00:52 | 37.55217 | -77.03400 | 19912 ft | 359 kts | 208° |
| 2026-05-07 00:52 | 37.52865 | -77.04458 | 19907 ft | 359 kts | 208° |
| 2026-05-07 00:52 | 37.50509 | -77.05517 | 19907 ft | 359 kts | 208° |
| 2026-05-07 00:52 | 37.48152 | -77.06576 | 19908 ft | 360 kts | 208° |
| 2026-05-07 00:53 | 37.45796 | -77.07634 | 19904 ft | 360 kts | 208° |
| 2026-05-07 00:53 | 37.43431 | -77.08695 | 19907 ft | 360 kts | 208° |
| 2026-05-07 00:53 | 37.41068 | -77.09755 | 19908 ft | 361 kts | 208° |
| 2026-05-07 00:53 | 37.38722 | -77.10806 | 19910 ft | 361 kts | 208° |
| 2026-05-07 00:54 | 37.36356 | -77.11865 | 19908 ft | 362 kts | 208° |
| 2026-05-07 00:54 | 37.33976 | -77.12930 | 19838 ft | 363 kts | 208° |
| 2026-05-07 00:54 | 37.31629 | -77.14081 | 19576 ft | 359 kts | 212° |
| 2026-05-07 00:54 | 37.29371 | -77.15378 | 19334 ft | 355 kts | 213° |
| 2026-05-07 00:55 | 37.27150 | -77.16709 | 19115 ft | 354 kts | 213° |
| 2026-05-07 00:55 | 37.24932 | -77.18037 | 18887 ft | 353 kts | 213° |
| 2026-05-07 00:55 | 37.22707 | -77.19350 | 18661 ft | 353 kts | 213° |
| 2026-05-07 00:55 | 37.20476 | -77.20654 | 18434 ft | 353 kts | 212° |
| 2026-05-07 00:56 | 37.18246 | -77.21944 | 18204 ft | 353 kts | 212° |
| 2026-05-07 00:56 | 37.16031 | -77.23251 | 17983 ft | 349 kts | 217° |
| 2026-05-07 00:56 | 37.14220 | -77.25139 | 17938 ft | 333 kts | 238° |
| 2026-05-07 00:56 | 37.13153 | -77.27647 | 17940 ft | 324 kts | 255° |
| 2026-05-07 00:57 | 37.12526 | -77.30353 | 17930 ft | 324 kts | 258° |
| 2026-05-07 00:57 | 37.11994 | -77.33052 | 17926 ft | 323 kts | 259° |
| 2026-05-07 00:57 | 37.11475 | -77.35789 | 17921 ft | 323 kts | 259° |
| 2026-05-07 00:57 | 37.10964 | -77.38522 | 17926 ft | 322 kts | 259° |
| 2026-05-07 00:58 | 37.10463 | -77.41216 | 17913 ft | 312 kts | 259° |
| 2026-05-07 00:58 | 37.09980 | -77.43802 | 17913 ft | 297 kts | 259° |
| 2026-05-07 00:58 | 37.09516 | -77.46265 | 17918 ft | 284 kts | 260° |
| 2026-05-07 00:58 | 37.09067 | -77.48627 | 17949 ft | 273 kts | 260° |
| 2026-05-07 00:59 | 37.08175 | -77.53323 | 17984 ft | 286 kts | 259° |
| 2026-05-07 00:59 | 37.07718 | -77.55766 | 17965 ft | 288 kts | 259° |
| 2026-05-07 00:59 | 37.07142 | -77.58163 | 17943 ft | 290 kts | 246° |
| 2026-05-07 01:00 | 37.05844 | -77.60117 | 17961 ft | 301 kts | 224° |
| 2026-05-07 01:00 | 37.03941 | -77.61254 | 17954 ft | 317 kts | 200° |
| 2026-05-07 01:00 | 37.01684 | -77.61352 | 17963 ft | 336 kts | 177° |
| 2026-05-07 01:00 | 36.99435 | -77.60320 | 17975 ft | 358 kts | 155° |
| 2026-05-07 01:01 | 36.97435 | -77.58346 | 17976 ft | 370 kts | 142° |
| 2026-05-07 01:01 | 36.96199 | -77.56873 | 17960 ft | 371 kts | 141° |
| 2026-05-07 01:01 | 36.93746 | -77.53836 | 17942 ft | 370 kts | 140° |
| 2026-05-07 01:01 | 36.91933 | -77.51568 | 17951 ft | 369 kts | 140° |
| 2026-05-07 01:02 | 36.90128 | -77.49310 | 18014 ft | 365 kts | 139° |
| 2026-05-07 01:02 | 36.88354 | -77.47025 | 18108 ft | 370 kts | 140° |
| 2026-05-07 01:02 | 36.86530 | -77.44722 | 18034 ft | 374 kts | 140° |
| 2026-05-07 01:02 | 36.84700 | -77.42420 | 17985 ft | 372 kts | 140° |
| 2026-05-07 01:03 | 36.82908 | -77.40167 | 17977 ft | 369 kts | 140° |
| 2026-05-07 01:03 | 36.81074 | -77.37860 | 17981 ft | 370 kts | 140° |
| 2026-05-07 01:03 | 36.79283 | -77.35609 | 17980 ft | 371 kts | 140° |
| 2026-05-07 01:03 | 36.77461 | -77.33320 | 17979 ft | 371 kts | 140° |
| 2026-05-07 01:04 | 36.75642 | -77.31034 | 17976 ft | 372 kts | 140° |
| 2026-05-07 01:04 | 36.73797 | -77.28715 | 17973 ft | 372 kts | 140° |
| 2026-05-07 01:04 | 36.71997 | -77.26450 | 17969 ft | 372 kts | 140° |
| 2026-05-07 01:04 | 36.70173 | -77.24157 | 17970 ft | 373 kts | 140° |
| 2026-05-07 01:05 | 36.68350 | -77.21866 | 17967 ft | 373 kts | 140° |
| 2026-05-07 01:05 | 36.67734 | -77.21095 | 17970 ft | 372 kts | 141° |
| 2026-05-07 01:05 | 36.64096 | -77.18895 | 17968 ft | 338 kts | 186° |
| 2026-05-07 01:05 | 36.61869 | -77.19369 | 17874 ft | 318 kts | 213° |
| 2026-05-07 01:06 | 36.60196 | -77.21002 | 17569 ft | 300 kts | 240° |
| 2026-05-07 01:06 | 36.59592 | -77.22506 | 17317 ft | 291 kts | 259° |
| 2026-05-07 01:06 | 36.59331 | -77.24950 | 17227 ft | 281 kts | 264° |
| 2026-05-07 01:06 | 36.58965 | -77.27328 | 17081 ft | 279 kts | 259° |
| 2026-05-07 01:07 | 36.58412 | -77.29660 | 16959 ft | 281 kts | 254° |
| 2026-05-07 01:07 | 36.57718 | -77.31941 | 16831 ft | 283 kts | 251° |
| 2026-05-07 01:07 | 36.56916 | -77.34185 | 16708 ft | 285 kts | 249° |
| 2026-05-07 01:07 | 36.56038 | -77.36405 | 16577 ft | 286 kts | 247° |
| 2026-05-07 01:08 | 36.55109 | -77.38597 | 16456 ft | 287 kts | 246° |
| 2026-05-07 01:08 | 36.54143 | -77.40777 | 16339 ft | 288 kts | 245° |
| 2026-05-07 01:08 | 36.53154 | -77.42941 | 16200 ft | 289 kts | 244° |
| 2026-05-07 01:08 | 36.52145 | -77.45106 | 16083 ft | 289 kts | 244° |
| 2026-05-07 01:09 | 36.51126 | -77.47263 | 15959 ft | 289 kts | 244° |
| 2026-05-07 01:09 | 36.50101 | -77.49415 | 15837 ft | 289 kts | 243° |
| 2026-05-07 01:09 | 36.49072 | -77.51562 | 15715 ft | 289 kts | 243° |
| 2026-05-07 01:09 | 36.48041 | -77.53704 | 15585 ft | 288 kts | 243° |
| 2026-05-07 01:10 | 36.47013 | -77.55834 | 15465 ft | 287 kts | 243° |
| 2026-05-07 01:10 | 36.45985 | -77.57959 | 15347 ft | 287 kts | 243° |
| 2026-05-07 01:10 | 36.44958 | -77.60081 | 15231 ft | 286 kts | 243° |
| 2026-05-07 01:10 | 36.43933 | -77.62195 | 15104 ft | 285 kts | 243° |
| 2026-05-07 01:11 | 36.42912 | -77.64299 | 15013 ft | 285 kts | 243° |
| 2026-05-07 01:11 | 36.41889 | -77.66404 | 14984 ft | 283 kts | 243° |
| 2026-05-07 01:11 | 36.40875 | -77.68490 | 14985 ft | 282 kts | 243° |
| 2026-05-07 01:11 | 36.39859 | -77.70581 | 14983 ft | 283 kts | 243° |
| 2026-05-07 01:12 | 36.38841 | -77.72671 | 14978 ft | 283 kts | 243° |
| 2026-05-07 01:12 | 36.37823 | -77.74763 | 14978 ft | 283 kts | 243° |
| 2026-05-07 01:12 | 36.36804 | -77.76854 | 14976 ft | 283 kts | 243° |
| 2026-05-07 01:12 | 36.35787 | -77.78940 | 14975 ft | 283 kts | 243° |
| 2026-05-07 01:13 | 36.34767 | -77.81031 | 14979 ft | 283 kts | 243° |
| 2026-05-07 01:13 | 36.33748 | -77.83116 | 14974 ft | 282 kts | 243° |
| 2026-05-07 01:13 | 36.32730 | -77.85200 | 14975 ft | 282 kts | 243° |
| 2026-05-07 01:13 | 36.31726 | -77.87254 | 14973 ft | 282 kts | 243° |
| 2026-05-07 01:14 | 36.30706 | -77.89340 | 14978 ft | 282 kts | 243° |
| 2026-05-07 01:14 | 36.29689 | -77.91418 | 14976 ft | 282 kts | 243° |
| 2026-05-07 01:14 | 36.28672 | -77.93495 | 14975 ft | 282 kts | 243° |
| 2026-05-07 01:14 | 36.27654 | -77.95574 | 14970 ft | 282 kts | 243° |
| 2026-05-07 01:15 | 36.26638 | -77.97646 | 14973 ft | 282 kts | 243° |
| 2026-05-07 01:15 | 36.25619 | -77.99724 | 14979 ft | 282 kts | 243° |
| 2026-05-07 01:15 | 36.24601 | -78.01796 | 14962 ft | 282 kts | 243° |
| 2026-05-07 01:15 | 36.23577 | -78.03882 | 14818 ft | 283 kts | 242° |
| 2026-05-07 01:16 | 36.22622 | -78.05989 | 14705 ft | 279 kts | 247° |
| 2026-05-07 01:16 | 36.21818 | -78.08165 | 14594 ft | 277 kts | 249° |
| 2026-05-07 01:16 | 36.21037 | -78.10343 | 14476 ft | 277 kts | 249° |
| 2026-05-07 01:16 | 36.20285 | -78.12540 | 14355 ft | 278 kts | 250° |
| 2026-05-07 01:17 | 36.19553 | -78.14763 | 14114 ft | 279 kts | 250° |
| 2026-05-07 01:17 | 36.18826 | -78.16972 | 13884 ft | 275 kts | 250° |
| 2026-05-07 01:17 | 36.18105 | -78.19147 | 13640 ft | 271 kts | 250° |
| 2026-05-07 01:17 | 36.17391 | -78.21287 | 13375 ft | 267 kts | 250° |
| 2026-05-07 01:18 | 36.16683 | -78.23400 | 13119 ft | 263 kts | 250° |
| 2026-05-07 01:18 | 36.15984 | -78.25480 | 12866 ft | 260 kts | 250° |
| 2026-05-07 01:18 | 36.15303 | -78.27504 | 12610 ft | 257 kts | 249° |
| 2026-05-07 01:18 | 36.14727 | -78.29600 | 12356 ft | 252 kts | 257° |
| 2026-05-07 01:19 | 36.14363 | -78.31681 | 12109 ft | 249 kts | 259° |
| 2026-05-07 01:19 | 36.14022 | -78.33771 | 11868 ft | 246 kts | 259° |
| 2026-05-07 01:19 | 36.13675 | -78.35831 | 11620 ft | 244 kts | 258° |
| 2026-05-07 01:19 | 36.13319 | -78.37875 | 11370 ft | 241 kts | 258° |
| 2026-05-07 01:20 | 36.12961 | -78.39895 | 11135 ft | 239 kts | 258° |
| 2026-05-07 01:20 | 36.12603 | -78.41894 | 10898 ft | 237 kts | 258° |
| 2026-05-07 01:20 | 36.12250 | -78.43876 | 10655 ft | 235 kts | 258° |
| 2026-05-07 01:20 | 36.11889 | -78.45841 | 10409 ft | 233 kts | 253° |
| 2026-05-07 01:21 | 36.11031 | -78.47520 | 10154 ft | 236 kts | 224° |
| 2026-05-07 01:21 | 36.09539 | -78.48407 | 9923 ft | 247 kts | 195° |
| 2026-05-07 01:21 | 36.07798 | -78.48230 | 9666 ft | 261 kts | 167° |
| 2026-05-07 01:21 | 36.06235 | -78.46984 | 9290 ft | 279 kts | 138° |
| 2026-05-07 01:22 | 36.05144 | -78.44946 | 8950 ft | 288 kts | 122° |
| 2026-05-07 01:22 | 36.04226 | -78.42734 | 8585 ft | 291 kts | 121° |
| 2026-05-07 01:22 | 36.03317 | -78.40485 | 8217 ft | 294 kts | 121° |
| 2026-05-07 01:22 | 36.02405 | -78.38222 | 8015 ft | 290 kts | 120° |
| 2026-05-07 01:23 | 36.01527 | -78.36031 | 7998 ft | 279 kts | 120° |
| 2026-05-07 01:23 | 36.00758 | -78.33889 | 7972 ft | 271 kts | 106° |
| 2026-05-07 01:23 | 36.00715 | -78.31620 | 8004 ft | 270 kts | 75° |
| 2026-05-07 01:23 | 36.01400 | -78.29456 | 8024 ft | 272 kts | 62° |
| 2026-05-07 01:24 | 36.02250 | -78.27341 | 8019 ft | 276 kts | 60° |
| 2026-05-07 01:24 | 36.03124 | -78.25217 | 8017 ft | 278 kts | 60° |
| 2026-05-07 01:24 | 36.03995 | -78.23100 | 8005 ft | 275 kts | 60° |
| 2026-05-07 01:24 | 36.04857 | -78.21015 | 7991 ft | 271 kts | 60° |
| 2026-05-07 01:25 | 36.05709 | -78.18954 | 7999 ft | 269 kts | 60° |
| 2026-05-07 01:25 | 36.06561 | -78.16887 | 7998 ft | 270 kts | 60° |
| 2026-05-07 01:25 | 36.07413 | -78.14820 | 7999 ft | 270 kts | 60° |
| 2026-05-07 01:25 | 36.08264 | -78.12756 | 8006 ft | 270 kts | 59° |
| 2026-05-07 01:26 | 36.09399 | -78.10956 | 7981 ft | 262 kts | 30° |
| 2026-05-07 01:26 | 36.10996 | -78.10087 | 7992 ft | 245 kts | 359° |
| 2026-05-07 01:26 | 36.12666 | -78.09998 | 8011 ft | 240 kts | 351° |
| 2026-05-07 01:26 | 36.14340 | -78.10040 | 7999 ft | 241 kts | 351° |
| 2026-05-07 01:27 | 36.15999 | -78.10234 | 7979 ft | 235 kts | 333° |
| 2026-05-07 01:27 | 36.17297 | -78.11273 | 7997 ft | 218 kts | 302° |
| 2026-05-07 01:27 | 36.17862 | -78.12930 | 7993 ft | 208 kts | 271° |
| 2026-05-07 01:27 | 36.17759 | -78.14719 | 7922 ft | 212 kts | 262° |
| 2026-05-07 01:28 | 36.17525 | -78.16559 | 7599 ft | 220 kts | 261° |
| 2026-05-07 01:28 | 36.17269 | -78.18437 | 7232 ft | 221 kts | 261° |
| 2026-05-07 01:28 | 36.17004 | -78.20306 | 6876 ft | 219 kts | 261° |
| 2026-05-07 01:28 | 36.16738 | -78.22153 | 6515 ft | 218 kts | 260° |
| 2026-05-07 01:29 | 36.16468 | -78.24017 | 6169 ft | 224 kts | 260° |
| 2026-05-07 01:29 | 36.16183 | -78.26034 | 5752 ft | 249 kts | 260° |
| 2026-05-07 01:29 | 36.15884 | -78.28193 | 5273 ft | 258 kts | 260° |
| 2026-05-07 01:29 | 36.15592 | -78.30374 | 5067 ft | 253 kts | 261° |
| 2026-05-07 01:30 | 36.15318 | -78.32448 | 5006 ft | 242 kts | 260° |
| 2026-05-07 01:30 | 36.15054 | -78.34484 | 4991 ft | 239 kts | 260° |
| 2026-05-07 01:30 | 36.14791 | -78.36516 | 5003 ft | 238 kts | 260° |
| 2026-05-07 01:30 | 36.14528 | -78.38538 | 5024 ft | 240 kts | 260° |
| 2026-05-07 01:31 | 36.14262 | -78.40599 | 5004 ft | 242 kts | 259° |
| 2026-05-07 01:31 | 36.13649 | -78.42518 | 5009 ft | 238 kts | 240° |
| 2026-05-07 01:31 | 36.12940 | -78.44329 | 4992 ft | 231 kts | 250° |
| 2026-05-07 01:31 | 36.12384 | -78.46201 | 4988 ft | 232 kts | 251° |
| 2026-05-07 01:32 | 36.11815 | -78.48096 | 4721 ft | 236 kts | 250° |
| 2026-05-07 01:32 | 36.11241 | -78.50002 | 4490 ft | 236 kts | 250° |
| 2026-05-07 01:32 | 36.10489 | -78.51764 | 4211 ft | 237 kts | 227° |
| 2026-05-07 01:32 | 36.09263 | -78.53061 | 4072 ft | 225 kts | 225° |
| 2026-05-07 01:33 | 36.08178 | -78.54367 | 3989 ft | 209 kts | 229° |
| 2026-05-07 01:33 | 36.07229 | -78.55631 | 3992 ft | 197 kts | 230° |
| 2026-05-07 01:33 | 36.06310 | -78.56899 | 4002 ft | 197 kts | 229° |
| 2026-05-07 01:33 | 36.05338 | -78.58074 | 3991 ft | 195 kts | 227° |
| 2026-05-07 01:34 | 36.04374 | -78.59250 | 4001 ft | 195 kts | 228° |
| 2026-05-07 01:34 | 36.03411 | -78.60435 | 3984 ft | 195 kts | 229° |
| 2026-05-07 01:34 | 36.02451 | -78.61620 | 3997 ft | 195 kts | 228° |
| 2026-05-07 01:34 | 36.01489 | -78.62801 | 3993 ft | 196 kts | 226° |
| 2026-05-07 01:35 | 36.00448 | -78.63888 | 3884 ft | 193 kts | 222° |
| 2026-05-07 01:35 | 35.99423 | -78.64854 | 3685 ft | 176 kts | 222° |
| 2026-05-07 01:35 | 35.98483 | -78.65734 | 3652 ft | 167 kts | 222° |
| 2026-05-07 01:35 | 35.97546 | -78.66636 | 3929 ft | 173 kts | 222° |
| 2026-05-07 01:36 | 35.96615 | -78.67582 | 3909 ft | 174 kts | 224° |
| 2026-05-07 01:36 | 35.95698 | -78.68568 | 3788 ft | 176 kts | 228° |
| 2026-05-07 01:36 | 35.94831 | -78.69616 | 3503 ft | 173 kts | 226° |
| 2026-05-07 01:36 | 35.93966 | -78.70604 | 3363 ft | 162 kts | 224° |
| 2026-05-07 01:37 | 35.93229 | -78.71467 | 3342 ft | 131 kts | 227° |
| 2026-05-07 01:37 | 35.92659 | -78.72170 | 3171 ft | 108 kts | 229° |
| 2026-05-07 01:37 | 35.92134 | -78.72802 | 2748 ft | 105 kts | 228° |
| 2026-05-07 01:37 | 35.91634 | -78.73413 | 2358 ft | 102 kts | 227° |
| 2026-05-07 01:38 | 35.91117 | -78.74059 | 1842 ft | 109 kts | 227° |
| 2026-05-07 01:38 | 35.90585 | -78.74716 | 1572 ft | 112 kts | 225° |
| 2026-05-07 01:38 | 35.90015 | -78.75397 | 1400 ft | 118 kts | 225° |
| 2026-05-07 01:38 | 35.89412 | -78.76131 | 1160 ft | 126 kts | 224° |
| 2026-05-07 01:39 | 35.88764 | -78.76933 | 902 ft | 139 kts | 224° |
| 2026-05-07 01:39 | 35.88079 | -78.77779 | 574 ft | 139 kts | 223° |
| 2026-05-07 01:39 | 35.87437 | -78.78544 | 426 ft | 116 kts | 223° |
| 2026-05-07 01:39 | 35.86947 | -78.79135 | 410 ft | 77 kts | 224° |
| 2026-05-07 01:40 | 35.86794 | -78.79384 | 409 ft | 12 kts | 254° |
| 2026-05-07 01:40 | 35.86798 | -78.79473 | 410 ft | 0 kts | 323° |
| 2026-05-07 01:41 | 35.86798 | -78.79474 | 410 ft | 0 kts | 323° |
| 2026-05-07 01:41 | 35.86799 | -78.79474 | 410 ft | 0 kts | 323° |
| 2026-05-07 01:41 | 35.86800 | -78.79475 | 411 ft | 0 kts | 323° |
| 2026-05-07 01:42 | 35.86808 | -78.79480 | 414 ft | 8 kts | 341° |
| 2026-05-07 01:42 | 35.86935 | -78.79343 | 412 ft | 35 kts | 47° |
| 2026-05-07 01:42 | 35.87122 | -78.79111 | 417 ft | 39 kts | 45° |
| 2026-05-07 01:43 | 35.87224 | -78.78989 | 421 ft | 11 kts | 44° |
| 2026-05-07 01:43 | 35.87281 | -78.78922 | 424 ft | 11 kts | 44° |
| 2026-05-07 01:43 | 35.87337 | -78.78858 | 422 ft | 11 kts | 40° |
| 2026-05-07 01:43 | 35.87392 | -78.78869 | 418 ft | 4 kts | 316° |
| 2026-05-07 01:44 | 35.87410 | -78.78904 | 429 ft | 6 kts | 334° |
| 2026-05-07 01:44 | 35.87430 | -78.78911 | 430 ft | 0 kts | 345° |